sensor_id;sensor_type;location;lat;lon;timestamp;pressure;altitude;pressure_sealevel;temperature;humidity
56504;BME280;48812;51.606;-0.114;2023-05-23T00:02:23;101885.34;;;19.53;53.36
56504;BME280;48812;51.606;-0.114;2023-05-23T00:04:56;101890.72;;;19.53;53.66
56504;BME280;48812;51.606;-0.114;2023-05-23T00:07:29;101882.72;;;19.52;53.38
56504;BME280;48812;51.606;-0.114;2023-05-23T00:10:03;101884.56;;;19.51;53.38
56504;BME280;48812;51.606;-0.114;2023-05-23T00:12:36;101893.53;;;19.50;53.34
56504;BME280;48812;51.606;-0.114;2023-05-23T00:15:10;101889.09;;;19.49;53.61
56504;BME280;48812;51.606;-0.114;2023-05-23T00:17:44;101881.13;;;19.48;53.57
56504;BME280;48812;51.606;-0.114;2023-05-23T00:20:17;101889.22;;;19.46;53.52
56504;BME280;48812;51.606;-0.114;2023-05-23T00:22:49;101878.50;;;19.46;53.16
56504;BME280;48812;51.606;-0.114;2023-05-23T00:25:24;101884.78;;;19.45;53.68
56504;BME280;48812;51.606;-0.114;2023-05-23T00:28:03;101880.34;;;19.44;53.74
56504;BME280;48812;51.606;-0.114;2023-05-23T00:30:36;101871.47;;;19.42;53.96
56504;BME280;48812;51.606;-0.114;2023-05-23T00:33:09;101876.84;;;19.42;53.63
56504;BME280;48812;51.606;-0.114;2023-05-23T00:35:45;101873.34;;;19.40;53.47
56504;BME280;48812;51.606;-0.114;2023-05-23T00:38:18;101876.91;;;19.41;53.58
56504;BME280;48812;51.606;-0.114;2023-05-23T00:40:51;101871.59;;;19.39;53.88
56504;BME280;48812;51.606;-0.114;2023-05-23T00:43:23;101870.72;;;19.39;54.01
56504;BME280;48812;51.606;-0.114;2023-05-23T00:45:56;101870.78;;;19.37;53.18
56504;BME280;48812;51.606;-0.114;2023-05-23T00:48:30;101866.31;;;19.36;54.06
56504;BME280;48812;51.606;-0.114;2023-05-23T00:51:02;101861.91;;;19.35;53.90
56504;BME280;48812;51.606;-0.114;2023-05-23T00:53:35;101860.13;;;19.34;53.89
56504;BME280;48812;51.606;-0.114;2023-05-23T00:56:08;101854.81;;;19.32;53.93
56504;BME280;48812;51.606;-0.114;2023-05-23T00:58:41;101864.69;;;19.32;53.37
56504;BME280;48812;51.606;-0.114;2023-05-23T01:01:13;101853.09;;;19.31;53.71
56504;BME280;48812;51.606;-0.114;2023-05-23T01:03:47;101862.91;;;19.31;53.56
56504;BME280;48812;51.606;-0.114;2023-05-23T01:06:21;101852.25;;;19.29;53.37
56504;BME280;48812;51.606;-0.114;2023-05-23T01:08:53;101859.44;;;19.29;53.54
56504;BME280;48812;51.606;-0.114;2023-05-23T01:11:29;101854.13;;;19.27;53.74
56504;BME280;48812;51.606;-0.114;2023-05-23T01:14:09;101855.94;;;19.27;54.02
56504;BME280;48812;51.606;-0.114;2023-05-23T01:16:59;101861.31;;;19.27;53.48
56504;BME280;48812;51.606;-0.114;2023-05-23T01:20:45;101859.59;;;19.24;54.12
56504;BME280;48812;51.606;-0.114;2023-05-23T01:26:21;101871.34;;;19.22;53.53
56504;BME280;48812;51.606;-0.114;2023-05-23T01:29:31;101877.63;;;19.21;53.67
56504;BME280;48812;51.606;-0.114;2023-05-23T01:32:06;101876.75;;;19.20;53.37
56504;BME280;48812;51.606;-0.114;2023-05-23T01:34:40;101878.53;;;19.20;53.40
56504;BME280;48812;51.606;-0.114;2023-05-23T01:37:14;101875.84;;;19.20;53.60
56504;BME280;48812;51.606;-0.114;2023-05-23T01:39:49;101876.84;;;19.17;53.43
56504;BME280;48812;51.606;-0.114;2023-05-23T01:42:23;101873.31;;;19.16;54.12
56504;BME280;48812;51.606;-0.114;2023-05-23T01:44:55;101886.72;;;19.16;53.63
56504;BME280;48812;51.606;-0.114;2023-05-23T01:47:30;101876.03;;;19.15;53.46
56504;BME280;48812;51.606;-0.114;2023-05-23T01:50:03;101875.16;;;19.14;53.64
56504;BME280;48812;51.606;-0.114;2023-05-23T01:52:36;101881.47;;;19.13;54.18
56504;BME280;48812;51.606;-0.114;2023-05-23T01:55:08;101882.38;;;19.12;53.94
56504;BME280;48812;51.606;-0.114;2023-05-23T01:57:42;101883.28;;;19.11;54.20
56504;BME280;48812;51.606;-0.114;2023-05-23T02:00:15;101890.47;;;19.11;53.94
56504;BME280;48812;51.606;-0.114;2023-05-23T02:02:50;101894.97;;;19.10;54.24
56504;BME280;48812;51.606;-0.114;2023-05-23T02:05:22;101886.94;;;19.10;54.02
56504;BME280;48812;51.606;-0.114;2023-05-23T02:07:57;101899.53;;;19.08;54.08
56504;BME280;48812;51.606;-0.114;2023-05-23T02:10:29;101895.94;;;19.08;53.75
56504;BME280;48812;51.606;-0.114;2023-05-23T02:13:04;101903.13;;;19.07;54.27
56504;BME280;48812;51.606;-0.114;2023-05-23T02:15:37;101907.63;;;19.07;53.99
56504;BME280;48812;51.606;-0.114;2023-05-23T02:18:09;101905.00;;;19.05;53.99
56504;BME280;48812;51.606;-0.114;2023-05-23T02:20:46;101905.00;;;19.05;54.05
56504;BME280;48812;51.606;-0.114;2023-05-23T02:23:18;101913.94;;;19.04;53.77
56504;BME280;48812;51.606;-0.114;2023-05-23T02:25:51;101904.16;;;19.03;54.07
56504;BME280;48812;51.606;-0.114;2023-05-23T02:28:23;101911.31;;;19.03;54.27
56504;BME280;48812;51.606;-0.114;2023-05-23T02:30:55;101911.31;;;19.03;54.17
56504;BME280;48812;51.606;-0.114;2023-05-23T02:33:33;101908.69;;;19.01;54.05
56504;BME280;48812;51.606;-0.114;2023-05-23T02:36:05;101910.50;;;19.01;54.29
56504;BME280;48812;51.606;-0.114;2023-05-23T02:38:38;101914.09;;;19.00;53.95
56504;BME280;48812;51.606;-0.114;2023-05-23T02:41:10;101910.56;;;18.99;53.95
56504;BME280;48812;51.606;-0.114;2023-05-23T02:43:45;101914.16;;;18.98;53.67
56504;BME280;48812;51.606;-0.114;2023-05-23T02:46:19;101913.25;;;18.99;54.04
56504;BME280;48812;51.606;-0.114;2023-05-23T02:48:52;101920.41;;;18.98;54.12
56504;BME280;48812;51.606;-0.114;2023-05-23T02:51:24;101915.97;;;18.97;54.16
56504;BME280;48812;51.606;-0.114;2023-05-23T02:53:57;101918.69;;;18.96;53.74
56504;BME280;48812;51.606;-0.114;2023-05-23T02:56:29;101921.38;;;18.96;53.96
56504;BME280;48812;51.606;-0.114;2023-05-23T02:59:01;101920.50;;;18.95;54.46
56504;BME280;48812;51.606;-0.114;2023-05-23T03:01:34;101923.25;;;18.94;53.75
56504;BME280;48812;51.606;-0.114;2023-05-23T03:04:07;101927.75;;;18.93;53.54
56504;BME280;48812;51.606;-0.114;2023-05-23T03:06:39;101923.25;;;18.94;54.03
56504;BME280;48812;51.606;-0.114;2023-05-23T03:09:13;101929.53;;;18.93;54.33
56504;BME280;48812;51.606;-0.114;2023-05-23T03:11:46;101928.72;;;18.91;53.94
56504;BME280;48812;51.606;-0.114;2023-05-23T03:14:18;101931.41;;;18.91;54.72
56504;BME280;48812;51.606;-0.114;2023-05-23T03:16:52;101926.94;;;18.90;54.38
56504;BME280;48812;51.606;-0.114;2023-05-23T03:19:24;101930.56;;;18.89;54.24
56504;BME280;48812;51.606;-0.114;2023-05-23T03:21:57;101930.56;;;18.89;54.02
56504;BME280;48812;51.606;-0.114;2023-05-23T03:24:29;101934.19;;;18.88;54.03
56504;BME280;48812;51.606;-0.114;2023-05-23T03:27:05;101933.31;;;18.87;53.65
56504;BME280;48812;51.606;-0.114;2023-05-23T03:29:51;101914.59;;;18.86;53.77
56504;BME280;48812;51.606;-0.114;2023-05-23T03:32:25;101922.63;;;18.86;54.02
56504;BME280;48812;51.606;-0.114;2023-05-23T03:34:57;101925.31;;;18.86;54.06
56504;BME280;48812;51.606;-0.114;2023-05-23T03:37:30;101922.69;;;18.84;53.89
56504;BME280;48812;51.606;-0.114;2023-05-23T03:40:02;101917.34;;;18.84;53.90
56504;BME280;48812;51.606;-0.114;2023-05-23T03:42:41;101927.25;;;18.82;53.76
56504;BME280;48812;51.606;-0.114;2023-05-23T03:45:16;101929.00;;;18.82;54.04
56504;BME280;48812;51.606;-0.114;2023-05-23T03:48:06;101929.97;;;18.81;54.26
56504;BME280;48812;51.606;-0.114;2023-05-23T03:50:39;101930.88;;;18.79;54.15
56504;BME280;48812;51.606;-0.114;2023-05-23T03:53:11;101930.94;;;18.78;53.87
56504;BME280;48812;51.606;-0.114;2023-05-23T03:55:48;101939.84;;;18.78;54.07
56504;BME280;48812;51.606;-0.114;2023-05-23T03:58:20;101929.13;;;18.78;53.84
56504;BME280;48812;51.606;-0.114;2023-05-23T04:00:56;101930.97;;;18.76;54.46
56504;BME280;48812;51.606;-0.114;2023-05-23T04:03:31;101929.25;;;18.75;54.06
56504;BME280;48812;51.606;-0.114;2023-05-23T04:06:10;101931.03;;;18.75;54.06
56504;BME280;48812;51.606;-0.114;2023-05-23T04:08:47;101933.75;;;18.73;54.52
56504;BME280;48812;51.606;-0.114;2023-05-23T04:11:20;101941.78;;;18.73;54.54
56504;BME280;48812;51.606;-0.114;2023-05-23T04:13:54;101929.34;;;18.72;54.15
56504;BME280;48812;51.606;-0.114;2023-05-23T04:16:26;101940.94;;;18.73;54.43
56504;BME280;48812;51.606;-0.114;2023-05-23T04:19:00;101932.03;;;18.72;54.48
56504;BME280;48812;51.606;-0.114;2023-05-23T04:21:40;101936.53;;;18.70;53.96
56504;BME280;48812;51.606;-0.114;2023-05-23T04:24:15;101930.31;;;18.70;54.57
56504;BME280;48812;51.606;-0.114;2023-05-23T04:26:47;101945.53;;;18.69;54.21
56504;BME280;48812;51.606;-0.114;2023-05-23T04:29:19;101944.66;;;18.69;54.18
56504;BME280;48812;51.606;-0.114;2023-05-23T04:31:52;101950.03;;;18.69;54.25
56504;BME280;48812;51.606;-0.114;2023-05-23T04:34:26;101952.75;;;18.67;54.26
56504;BME280;48812;51.606;-0.114;2023-05-23T04:37:01;101952.75;;;18.67;54.56
56504;BME280;48812;51.606;-0.114;2023-05-23T04:39:34;101956.34;;;18.66;54.57
56504;BME280;48812;51.606;-0.114;2023-05-23T04:42:25;101961.75;;;18.65;54.58
56504;BME280;48812;51.606;-0.114;2023-05-23T04:45:19;101953.72;;;18.65;54.14
56504;BME280;48812;51.606;-0.114;2023-05-23T04:48:09;101960.88;;;18.64;54.22
56504;BME280;48812;51.606;-0.114;2023-05-23T04:50:47;101969.81;;;18.63;54.45
56504;BME280;48812;51.606;-0.114;2023-05-23T04:53:22;101977.00;;;18.63;54.27
56504;BME280;48812;51.606;-0.114;2023-05-23T04:55:54;101974.31;;;18.63;54.73
56504;BME280;48812;51.606;-0.114;2023-05-23T04:58:34;101979.72;;;18.61;53.86
56504;BME280;48812;51.606;-0.114;2023-05-23T05:01:09;101979.72;;;18.61;54.65
56504;BME280;48812;51.606;-0.114;2023-05-23T05:03:41;101976.19;;;18.60;54.40
56504;BME280;48812;51.606;-0.114;2023-05-23T05:06:13;101983.31;;;18.60;54.77
56504;BME280;48812;51.606;-0.114;2023-05-23T05:08:46;101983.31;;;18.60;54.31
56504;BME280;48812;51.606;-0.114;2023-05-23T05:11:19;101989.63;;;18.59;54.93
56504;BME280;48812;51.606;-0.114;2023-05-23T05:13:51;101983.31;;;18.60;54.38
56504;BME280;48812;51.606;-0.114;2023-05-23T05:16:24;101986.94;;;18.59;54.27
56504;BME280;48812;51.606;-0.114;2023-05-23T05:18:57;101987.84;;;18.58;54.41
56504;BME280;48812;51.606;-0.114;2023-05-23T05:21:29;101987.81;;;18.59;54.44
56504;BME280;48812;51.606;-0.114;2023-05-23T05:24:02;101990.53;;;18.58;54.31
56504;BME280;48812;51.606;-0.114;2023-05-23T05:26:35;101993.22;;;18.58;54.85
56504;BME280;48812;51.606;-0.114;2023-05-23T05:29:08;101995.91;;;18.58;54.64
56504;BME280;48812;51.606;-0.114;2023-05-23T05:31:42;101998.56;;;18.58;54.37
56504;BME280;48812;51.606;-0.114;2023-05-23T05:34:16;102002.16;;;18.57;55.02
56504;BME280;48812;51.606;-0.114;2023-05-23T05:36:49;102010.19;;;18.57;54.53
56504;BME280;48812;51.606;-0.114;2023-05-23T05:39:23;102009.34;;;18.56;54.42
56504;BME280;48812;51.606;-0.114;2023-05-23T05:41:55;102020.97;;;18.55;54.44
56504;BME280;48812;51.606;-0.114;2023-05-23T05:44:27;102019.19;;;18.56;54.28
56504;BME280;48812;51.606;-0.114;2023-05-23T05:47:04;102019.19;;;18.56;55.01
56504;BME280;48812;51.606;-0.114;2023-05-23T05:49:36;102012.06;;;18.55;55.08
56504;BME280;48812;51.606;-0.114;2023-05-23T05:52:10;102010.28;;;18.54;55.17
56504;BME280;48812;51.606;-0.114;2023-05-23T05:54:45;102004.94;;;18.54;53.95
56504;BME280;48812;51.606;-0.114;2023-05-23T05:57:19;102012.97;;;18.54;54.48
56504;BME280;48812;51.606;-0.114;2023-05-23T05:59:51;102015.66;;;18.54;54.77
56504;BME280;48812;51.606;-0.114;2023-05-23T06:02:25;102013.91;;;18.53;54.43
56504;BME280;48812;51.606;-0.114;2023-05-23T06:04:57;102019.28;;;18.53;54.38
56504;BME280;48812;51.606;-0.114;2023-05-23T06:07:30;102017.47;;;18.53;54.81
56504;BME280;48812;51.606;-0.114;2023-05-23T06:10:02;102007.63;;;18.54;54.70
56504;BME280;48812;51.606;-0.114;2023-05-23T06:12:34;102014.78;;;18.53;54.73
56504;BME280;48812;51.606;-0.114;2023-05-23T06:15:08;102019.28;;;18.53;54.96
56504;BME280;48812;51.606;-0.114;2023-05-23T06:17:42;102025.50;;;18.53;54.83
56504;BME280;48812;51.606;-0.114;2023-05-23T06:20:16;102017.47;;;18.53;54.38
56504;BME280;48812;51.606;-0.114;2023-05-23T06:22:54;102021.91;;;18.54;54.45
56504;BME280;48812;51.606;-0.114;2023-05-23T06:25:26;102022.78;;;18.55;54.72
56504;BME280;48812;51.606;-0.114;2023-05-23T06:27:58;102022.78;;;18.55;54.80
56504;BME280;48812;51.606;-0.114;2023-05-23T06:30:34;102021.91;;;18.54;54.50
56504;BME280;48812;51.606;-0.114;2023-05-23T06:33:08;102018.28;;;18.55;55.41
56504;BME280;48812;51.606;-0.114;2023-05-23T06:35:41;102019.19;;;18.56;54.86
56504;BME280;48812;51.606;-0.114;2023-05-23T06:38:13;102003.09;;;18.56;55.08
56504;BME280;48812;51.606;-0.114;2023-05-23T06:40:48;102020.00;;;18.58;54.66
56504;BME280;48812;51.606;-0.114;2023-05-23T06:43:22;102023.53;;;18.58;54.71
56504;BME280;48812;51.606;-0.114;2023-05-23T06:45:58;102024.44;;;18.59;55.04
56504;BME280;48812;51.606;-0.114;2023-05-23T06:48:32;102026.13;;;18.61;55.03
56504;BME280;48812;51.606;-0.114;2023-05-23T06:51:05;102016.28;;;18.62;54.75
56504;BME280;48812;51.606;-0.114;2023-05-23T06:53:38;102012.69;;;18.63;54.71
56504;BME280;48812;51.606;-0.114;2023-05-23T06:56:10;102019.75;;;18.66;55.30
56504;BME280;48812;51.606;-0.114;2023-05-23T06:58:57;102021.50;;;18.67;55.18
56504;BME280;48812;51.606;-0.114;2023-05-23T07:01:31;102023.31;;;18.66;54.85
56504;BME280;48812;51.606;-0.114;2023-05-23T07:04:03;102027.75;;;18.67;54.74
56504;BME280;48812;51.606;-0.114;2023-05-23T07:06:35;102028.63;;;18.68;54.80
56504;BME280;48812;51.606;-0.114;2023-05-23T07:09:10;102026.81;;;18.68;54.76
56504;BME280;48812;51.606;-0.114;2023-05-23T07:11:44;102023.22;;;18.69;54.79
56504;BME280;48812;51.606;-0.114;2023-05-23T07:14:20;102025.91;;;18.69;55.12
56504;BME280;48812;51.606;-0.114;2023-05-23T07:16:54;102024.13;;;18.68;55.05
56504;BME280;48812;51.606;-0.114;2023-05-23T07:19:26;102028.56;;;18.69;54.89
56504;BME280;48812;51.606;-0.114;2023-05-23T07:22:00;102023.22;;;18.69;55.05
56504;BME280;48812;51.606;-0.114;2023-05-23T07:24:34;102028.56;;;18.69;54.77
56504;BME280;48812;51.606;-0.114;2023-05-23T07:27:09;102038.34;;;18.70;54.73
56504;BME280;48812;51.606;-0.114;2023-05-23T07:29:42;102028.53;;;18.71;54.73
56504;BME280;48812;51.606;-0.114;2023-05-23T07:32:16;102032.13;;;18.70;54.54
56504;BME280;48812;51.606;-0.114;2023-05-23T07:34:49;102033.00;;;18.70;54.85
56504;BME280;48812;51.606;-0.114;2023-05-23T07:37:21;102027.63;;;18.70;55.49
56504;BME280;48812;51.606;-0.114;2023-05-23T07:39:54;102036.56;;;18.71;55.04
56504;BME280;48812;51.606;-0.114;2023-05-23T07:42:26;102025.84;;;18.71;54.30
56504;BME280;48812;51.606;-0.114;2023-05-23T07:44:59;102029.38;;;18.71;54.71
56504;BME280;48812;51.606;-0.114;2023-05-23T07:47:32;102029.38;;;18.71;54.96
56504;BME280;48812;51.606;-0.114;2023-05-23T07:50:04;102041.81;;;18.74;54.87
56504;BME280;48812;51.606;-0.114;2023-05-23T07:52:38;102040.94;;;18.73;54.46
56504;BME280;48812;51.606;-0.114;2023-05-23T07:55:11;102034.66;;;18.74;54.68
56504;BME280;48812;51.606;-0.114;2023-05-23T07:57:43;102040.00;;;18.74;55.17
56504;BME280;48812;51.606;-0.114;2023-05-23T08:00:16;102043.50;;;18.76;54.33
56504;BME280;48812;51.606;-0.114;2023-05-23T08:02:48;102045.28;;;18.77;54.50
56504;BME280;48812;51.606;-0.114;2023-05-23T08:05:27;102045.28;;;18.77;54.28
56504;BME280;48812;51.606;-0.114;2023-05-23T08:08:01;102045.28;;;18.77;54.82
56504;BME280;48812;51.606;-0.114;2023-05-23T08:10:34;102045.28;;;18.77;55.13
56504;BME280;48812;51.606;-0.114;2023-05-23T08:13:13;102043.41;;;18.79;55.16
56504;BME280;48812;51.606;-0.114;2023-05-23T08:15:59;102051.50;;;18.78;54.76
56504;BME280;48812;51.606;-0.114;2023-05-23T08:18:34;102040.78;;;18.78;54.71
56504;BME280;48812;51.606;-0.114;2023-05-23T08:21:07;102044.34;;;18.78;54.90
56504;BME280;48812;51.606;-0.114;2023-05-23T08:23:39;102049.69;;;18.78;54.70
56504;BME280;48812;51.606;-0.114;2023-05-23T08:26:11;102052.38;;;18.78;54.51
56504;BME280;48812;51.606;-0.114;2023-05-23T08:28:44;102043.41;;;18.79;54.33
56504;BME280;48812;51.606;-0.114;2023-05-23T08:31:16;102050.53;;;18.81;55.00
56504;BME280;48812;51.606;-0.114;2023-05-23T08:33:48;102056.81;;;18.79;54.50
56504;BME280;48812;51.606;-0.114;2023-05-23T08:36:23;102051.41;;;18.81;54.53
56504;BME280;48812;51.606;-0.114;2023-05-23T08:38:55;102047.88;;;18.81;54.34
56504;BME280;48812;51.606;-0.114;2023-05-23T08:41:34;102046.91;;;18.82;54.47
56504;BME280;48812;51.606;-0.114;2023-05-23T08:44:10;102045.19;;;18.81;54.42
56504;BME280;48812;51.606;-0.114;2023-05-23T08:46:51;102054.94;;;18.82;55.01
56504;BME280;48812;51.606;-0.114;2023-05-23T08:49:43;102062.13;;;18.81;54.93
56504;BME280;48812;51.606;-0.114;2023-05-23T08:52:16;102052.28;;;18.82;55.17
56504;BME280;48812;51.606;-0.114;2023-05-23T08:54:52;102057.63;;;18.82;55.02
56504;BME280;48812;51.606;-0.114;2023-05-23T08:57:25;102047.81;;;18.82;54.53
56504;BME280;48812;51.606;-0.114;2023-05-23T09:00:04;102041.56;;;18.82;54.76
56504;BME280;48812;51.606;-0.114;2023-05-23T09:02:46;102043.31;;;18.83;54.72
56504;BME280;48812;51.606;-0.114;2023-05-23T09:05:50;102043.31;;;18.83;54.24
56504;BME280;48812;51.606;-0.114;2023-05-23T09:08:25;102047.75;;;18.84;54.54
56504;BME280;48812;51.606;-0.114;2023-05-23T09:11:02;102044.19;;;18.83;54.81
56504;BME280;48812;51.606;-0.114;2023-05-23T09:13:38;102053.13;;;18.84;54.42
56504;BME280;48812;51.606;-0.114;2023-05-23T09:16:14;102053.94;;;18.86;54.45
56504;BME280;48812;51.606;-0.114;2023-05-23T09:18:55;102053.94;;;18.86;54.30
56504;BME280;48812;51.606;-0.114;2023-05-23T09:21:28;102055.69;;;18.87;54.48
56504;BME280;48812;51.606;-0.114;2023-05-23T09:24:10;102044.97;;;18.87;54.22
56504;BME280;48812;51.606;-0.114;2023-05-23T09:26:45;102039.59;;;18.87;54.43
56504;BME280;48812;51.606;-0.114;2023-05-23T09:29:19;102048.53;;;18.87;54.70
56504;BME280;48812;51.606;-0.114;2023-05-23T09:31:58;102050.31;;;18.87;54.13
56504;BME280;48812;51.606;-0.114;2023-05-23T09:34:30;102050.31;;;18.87;54.38
56504;BME280;48812;51.606;-0.114;2023-05-23T09:37:03;102051.22;;;18.87;54.44
56504;BME280;48812;51.606;-0.114;2023-05-23T09:39:38;102053.91;;;18.87;55.00
56504;BME280;48812;51.606;-0.114;2023-05-23T09:42:11;102057.44;;;18.88;54.62
56504;BME280;48812;51.606;-0.114;2023-05-23T09:44:44;102053.91;;;18.87;54.48
56504;BME280;48812;51.606;-0.114;2023-05-23T09:47:16;102057.44;;;18.88;54.41
56504;BME280;48812;51.606;-0.114;2023-05-23T09:49:49;102059.25;;;18.87;54.84
56504;BME280;48812;51.606;-0.114;2023-05-23T09:52:22;102057.44;;;18.88;54.41
56504;BME280;48812;51.606;-0.114;2023-05-23T09:54:55;102062.81;;;18.88;55.23
56504;BME280;48812;51.606;-0.114;2023-05-23T09:57:28;102071.75;;;18.87;54.51
56504;BME280;48812;51.606;-0.114;2023-05-23T10:00:02;102064.66;;;18.86;54.14
56504;BME280;48812;51.606;-0.114;2023-05-23T10:02:53;102059.31;;;18.86;54.31
56504;BME280;48812;51.606;-0.114;2023-05-23T10:08:01;102062.91;;;18.85;54.38
56504;BME280;48812;51.606;-0.114;2023-05-23T10:10:53;102067.34;;;18.86;54.72
56504;BME280;48812;51.606;-0.114;2023-05-23T10:13:29;102059.31;;;18.86;54.69
56504;BME280;48812;51.606;-0.114;2023-05-23T10:16:08;102056.56;;;18.87;54.32
56504;BME280;48812;51.606;-0.114;2023-05-23T10:18:43;102056.53;;;18.89;54.61
56504;BME280;48812;51.606;-0.114;2023-05-23T10:21:18;102049.31;;;18.91;54.91
56504;BME280;48812;51.606;-0.114;2023-05-23T10:23:52;102058.16;;;18.93;54.92
56504;BME280;48812;51.606;-0.114;2023-05-23T10:26:26;102046.53;;;18.94;54.92
56504;BME280;48812;51.606;-0.114;2023-05-23T10:28:58;102050.84;;;18.98;54.85
56504;BME280;48812;51.606;-0.114;2023-05-23T10:31:32;102040.06;;;19.00;54.90
56504;BME280;48812;51.606;-0.114;2023-05-23T10:37:00;102041.75;;;19.04;54.74
56504;BME280;48812;51.606;-0.114;2023-05-23T10:39:43;102052.41;;;19.05;54.61
56504;BME280;48812;51.606;-0.114;2023-05-23T10:47:50;102057.53;;;19.11;54.52
56504;BME280;48812;51.606;-0.114;2023-05-23T10:50:30;102054.81;;;19.13;54.12
56504;BME280;48812;51.606;-0.114;2023-05-23T10:53:06;102055.66;;;19.15;54.82
56504;BME280;48812;51.606;-0.114;2023-05-23T10:55:40;102054.72;;;19.16;54.52
56504;BME280;48812;51.606;-0.114;2023-05-23T10:58:19;102052.94;;;19.16;54.00
56504;BME280;48812;51.606;-0.114;2023-05-23T11:00:54;102062.72;;;19.17;54.81
56504;BME280;48812;51.606;-0.114;2023-05-23T11:03:31;102067.16;;;19.19;54.25
56504;BME280;48812;51.606;-0.114;2023-05-23T11:06:08;102058.16;;;19.20;54.78
56504;BME280;48812;51.606;-0.114;2023-05-23T11:09:03;102063.47;;;19.21;54.52
56504;BME280;48812;51.606;-0.114;2023-05-23T11:14:30;102061.69;;;19.22;54.32
56504;BME280;48812;51.606;-0.114;2023-05-23T11:19:54;102063.44;;;19.23;54.28
56504;BME280;48812;51.606;-0.114;2023-05-23T11:22:27;102065.19;;;19.24;54.36
56504;BME280;48812;51.606;-0.114;2023-05-23T11:25:06;102060.69;;;19.24;54.75
56504;BME280;48812;51.606;-0.114;2023-05-23T11:27:39;102059.84;;;19.24;54.22
56504;BME280;48812;51.606;-0.114;2023-05-23T11:30:13;102064.28;;;19.25;54.36
56504;BME280;48812;51.606;-0.114;2023-05-23T11:32:50;102063.31;;;19.26;54.48
56504;BME280;48812;51.606;-0.114;2023-05-23T11:35:23;102064.22;;;19.26;54.11
56504;BME280;48812;51.606;-0.114;2023-05-23T11:37:55;102074.00;;;19.27;54.62
56504;BME280;48812;51.606;-0.114;2023-05-23T11:40:29;102070.47;;;19.27;53.80
56504;BME280;48812;51.606;-0.114;2023-05-23T11:43:03;102066.81;;;19.28;53.96
56504;BME280;48812;51.606;-0.114;2023-05-23T11:45:37;102064.16;;;19.28;54.61
56504;BME280;48812;51.606;-0.114;2023-05-23T11:48:10;102072.19;;;19.28;54.10
56504;BME280;48812;51.606;-0.114;2023-05-23T11:50:48;102064.09;;;19.29;54.30
56504;BME280;48812;51.606;-0.114;2023-05-23T11:53:21;102068.59;;;19.29;54.42
56504;BME280;48812;51.606;-0.114;2023-05-23T11:56:00;102067.66;;;19.30;54.31
56504;BME280;48812;51.606;-0.114;2023-05-23T11:58:34;102065.00;;;19.30;54.43
56504;BME280;48812;51.606;-0.114;2023-05-23T12:01:07;102060.44;;;19.32;53.58
56504;BME280;48812;51.606;-0.114;2023-05-23T12:03:46;102045.28;;;19.31;54.40
56504;BME280;48812;51.606;-0.114;2023-05-23T12:06:20;102054.16;;;19.33;54.13
56504;BME280;48812;51.606;-0.114;2023-05-23T12:08:52;102047.91;;;19.32;54.16
56504;BME280;48812;51.606;-0.114;2023-05-23T12:11:25;102042.50;;;19.34;53.65
56504;BME280;48812;51.606;-0.114;2023-05-23T12:13:58;102046.94;;;19.35;53.87
56504;BME280;48812;51.606;-0.114;2023-05-23T12:16:41;102037.94;;;19.36;53.57
56504;BME280;48812;51.606;-0.114;2023-05-23T12:19:15;102043.31;;;19.36;53.81
56504;BME280;48812;51.606;-0.114;2023-05-23T12:21:48;102050.47;;;19.37;53.91
56504;BME280;48812;51.606;-0.114;2023-05-23T12:24:21;102047.72;;;19.39;53.96
56504;BME280;48812;51.606;-0.114;2023-05-23T12:26:56;102043.22;;;19.39;53.93
56504;BME280;48812;51.606;-0.114;2023-05-23T12:29:32;102051.19;;;19.42;53.99
56504;BME280;48812;51.606;-0.114;2023-05-23T12:32:06;102034.16;;;19.43;54.12
56504;BME280;48812;51.606;-0.114;2023-05-23T12:34:41;102032.28;;;19.45;53.40
56504;BME280;48812;51.606;-0.114;2023-05-23T12:37:14;102040.25;;;19.48;53.68
56504;BME280;48812;51.606;-0.114;2023-05-23T12:39:51;102033.97;;;19.49;53.60
56504;BME280;48812;51.606;-0.114;2023-05-23T12:42:23;102028.44;;;19.52;53.77
56504;BME280;48812;51.606;-0.114;2023-05-23T12:44:56;102031.97;;;19.55;53.72
56504;BME280;48812;51.606;-0.114;2023-05-23T12:47:29;102026.50;;;19.58;53.31
56504;BME280;48812;51.606;-0.114;2023-05-23T12:50:02;102010.38;;;19.59;53.49
56504;BME280;48812;51.606;-0.114;2023-05-23T12:52:35;102015.63;;;19.61;53.54
56504;BME280;48812;51.606;-0.114;2023-05-23T12:55:08;102020.03;;;19.63;53.38
56504;BME280;48812;51.606;-0.114;2023-05-23T12:57:40;102011.13;;;19.63;53.36
56504;BME280;48812;51.606;-0.114;2023-05-23T13:00:13;102013.75;;;19.64;53.57
56504;BME280;48812;51.606;-0.114;2023-05-23T13:02:45;102020.03;;;19.63;53.31
56504;BME280;48812;51.606;-0.114;2023-05-23T13:05:17;102022.66;;;19.65;53.32
56504;BME280;48812;51.606;-0.114;2023-05-23T13:07:50;102017.28;;;19.65;52.94
56504;BME280;48812;51.606;-0.114;2023-05-23T13:10:22;102019.00;;;19.67;53.15
56504;BME280;48812;51.606;-0.114;2023-05-23T13:12:54;102014.50;;;19.68;53.27
56504;BME280;48812;51.606;-0.114;2023-05-23T13:15:27;102009.94;;;19.70;52.99
56504;BME280;48812;51.606;-0.114;2023-05-23T13:17:59;102011.72;;;19.71;53.09
56504;BME280;48812;51.606;-0.114;2023-05-23T13:20:31;102008.97;;;19.73;53.14
56504;BME280;48812;51.606;-0.114;2023-05-23T13:23:05;102011.59;;;19.74;53.40
56504;BME280;48812;51.606;-0.114;2023-05-23T13:25:37;102014.22;;;19.76;52.95
56504;BME280;48812;51.606;-0.114;2023-05-23T13:28:11;102008.88;;;19.76;52.98
56504;BME280;48812;51.606;-0.114;2023-05-23T13:30:43;102014.22;;;19.76;52.99
56504;BME280;48812;51.606;-0.114;2023-05-23T13:33:18;102009.72;;;19.76;53.25
56504;BME280;48812;51.606;-0.114;2023-05-23T13:35:50;102011.56;;;19.76;53.04
56504;BME280;48812;51.606;-0.114;2023-05-23T13:38:23;102007.09;;;19.75;52.88
56504;BME280;48812;51.606;-0.114;2023-05-23T13:40:58;102006.25;;;19.74;52.98